sensor_id;sensor_type;location;lat;lon;timestamp;pressure;altitude;pressure_sealevel;temperature
67822;BMP180;54434;50.096;20.082;2022-12-08T00:01:47;98335.20;;;2.90
67822;BMP180;54434;50.096;20.082;2022-12-08T00:04:23;98333.40;;;2.90
67822;BMP180;54434;50.096;20.082;2022-12-08T00:06:59;98339.40;;;2.90
67822;BMP180;54434;50.096;20.082;2022-12-08T00:09:52;98338.60;;;2.90
67822;BMP180;54434;50.096;20.082;2022-12-08T00:12:30;98338.40;;;2.90
67822;BMP180;54434;50.096;20.082;2022-12-08T00:15:10;98338.00;;;2.90
67822;BMP180;54434;50.096;20.082;2022-12-08T00:17:52;98342.60;;;2.90
67822;BMP180;54434;50.096;20.082;2022-12-08T00:20:36;98341.40;;;2.90
67822;BMP180;54434;50.096;20.082;2022-12-08T00:23:19;98336.20;;;2.90
67822;BMP180;54434;50.096;20.082;2022-12-08T00:26:06;98340.80;;;2.90
67822;BMP180;54434;50.096;20.082;2022-12-08T00:28:50;98339.60;;;2.84
67822;BMP180;54434;50.096;20.082;2022-12-08T00:31:38;98342.60;;;2.90
67822;BMP180;54434;50.096;20.082;2022-12-08T00:34:19;98344.20;;;2.90
67822;BMP180;54434;50.096;20.082;2022-12-08T00:36:59;98348.20;;;2.90
67822;BMP180;54434;50.096;20.082;2022-12-08T00:39:39;98348.80;;;2.90
67822;BMP180;54434;50.096;20.082;2022-12-08T00:42:20;98348.60;;;2.90
67822;BMP180;54434;50.096;20.082;2022-12-08T00:45:01;98351.00;;;2.80
67822;BMP180;54434;50.096;20.082;2022-12-08T00:47:41;98352.40;;;2.80
67822;BMP180;54434;50.096;20.082;2022-12-08T00:50:19;98353.00;;;2.80
67822;BMP180;54434;50.096;20.082;2022-12-08T00:53:01;98354.00;;;2.76
67822;BMP180;54434;50.096;20.082;2022-12-08T00:55:37;98354.00;;;2.70
67822;BMP180;54434;50.096;20.082;2022-12-08T00:58:19;98353.60;;;2.70
67822;BMP180;54434;50.096;20.082;2022-12-08T01:00:59;98355.80;;;2.64
67822;BMP180;54434;50.096;20.082;2022-12-08T01:03:39;98353.60;;;2.60
67822;BMP180;54434;50.096;20.082;2022-12-08T01:06:18;98360.00;;;2.60
67822;BMP180;54434;50.096;20.082;2022-12-08T01:08:57;98361.20;;;2.60
67822;BMP180;54434;50.096;20.082;2022-12-08T01:11:40;98364.80;;;2.60
67822;BMP180;54434;50.096;20.082;2022-12-08T01:14:20;98363.60;;;2.60
67822;BMP180;54434;50.096;20.082;2022-12-08T01:17:01;98366.40;;;2.60
67822;BMP180;54434;50.096;20.082;2022-12-08T01:19:39;98365.80;;;2.66
67822;BMP180;54434;50.096;20.082;2022-12-08T01:22:19;98376.20;;;2.68
67822;BMP180;54434;50.096;20.082;2022-12-08T01:24:57;98374.60;;;2.70
67822;BMP180;54434;50.096;20.082;2022-12-08T01:27:35;98372.40;;;2.70
67822;BMP180;54434;50.096;20.082;2022-12-08T01:30:16;98367.20;;;2.70
67822;BMP180;54434;50.096;20.082;2022-12-08T01:32:55;98370.20;;;2.70
67822;BMP180;54434;50.096;20.082;2022-12-08T01:35:35;98366.00;;;2.72
67822;BMP180;54434;50.096;20.082;2022-12-08T01:38:16;98363.00;;;2.80
67822;BMP180;54434;50.096;20.082;2022-12-08T01:40:56;98363.40;;;2.80
67822;BMP180;54434;50.096;20.082;2022-12-08T01:44:00;98367.00;;;2.80
67822;BMP180;54434;50.096;20.082;2022-12-08T01:46:40;98362.60;;;2.80
67822;BMP180;54434;50.096;20.082;2022-12-08T01:49:25;98362.00;;;2.80
67822;BMP180;54434;50.096;20.082;2022-12-08T01:52:12;98361.80;;;2.80
67822;BMP180;54434;50.096;20.082;2022-12-08T01:54:56;98362.20;;;2.80
67822;BMP180;54434;50.096;20.082;2022-12-08T01:57:42;98355.20;;;2.80
67822;BMP180;54434;50.096;20.082;2022-12-08T02:00:23;98359.80;;;2.80
67822;BMP180;54434;50.096;20.082;2022-12-08T02:03:06;98360.00;;;2.80
67822;BMP180;54434;50.096;20.082;2022-12-08T02:05:49;98364.20;;;2.80
67822;BMP180;54434;50.096;20.082;2022-12-08T02:08:29;98365.80;;;2.80
67822;BMP180;54434;50.096;20.082;2022-12-08T02:11:12;98366.00;;;2.80
67822;BMP180;54434;50.096;20.082;2022-12-08T02:13:53;98369.60;;;2.80
67822;BMP180;54434;50.096;20.082;2022-12-08T02:16:44;98376.40;;;2.74
67822;BMP180;54434;50.096;20.082;2022-12-08T02:23:17;98379.80;;;2.76
67822;BMP180;54434;50.096;20.082;2022-12-08T02:30:23;98372.80;;;2.70
67822;BMP180;54434;50.096;20.082;2022-12-08T02:33:53;98374.00;;;2.70
67822;BMP180;54434;50.096;20.082;2022-12-08T02:36:51;98372.60;;;2.60
67822;BMP180;54434;50.096;20.082;2022-12-08T02:39:44;98370.40;;;2.50
67822;BMP180;54434;50.096;20.082;2022-12-08T02:42:36;98369.80;;;2.50
67822;BMP180;54434;50.096;20.082;2022-12-08T02:45:26;98374.60;;;2.40
67822;BMP180;54434;50.096;20.082;2022-12-08T02:48:06;98375.40;;;2.30
67822;BMP180;54434;50.096;20.082;2022-12-08T02:50:45;98370.20;;;2.28
67822;BMP180;54434;50.096;20.082;2022-12-08T02:53:21;98372.60;;;2.20
67822;BMP180;54434;50.096;20.082;2022-12-08T02:56:13;98378.20;;;2.10
67822;BMP180;54434;50.096;20.082;2022-12-08T02:59:12;98374.60;;;2.02
67822;BMP180;54434;50.096;20.082;2022-12-08T03:02:17;98376.60;;;1.94
67822;BMP180;54434;50.096;20.082;2022-12-08T03:05:08;98375.60;;;1.90
67822;BMP180;54434;50.096;20.082;2022-12-08T03:08:01;98376.00;;;1.80
67822;BMP180;54434;50.096;20.082;2022-12-08T03:10:43;98378.60;;;1.72
67822;BMP180;54434;50.096;20.082;2022-12-08T03:13:27;98376.80;;;1.70
67822;BMP180;54434;50.096;20.082;2022-12-08T03:16:07;98379.20;;;1.62
67822;BMP180;54434;50.096;20.082;2022-12-08T03:18:52;98373.00;;;1.60
67822;BMP180;54434;50.096;20.082;2022-12-08T03:21:32;98370.80;;;1.60
67822;BMP180;54434;50.096;20.082;2022-12-08T03:24:13;98372.80;;;1.50
67822;BMP180;54434;50.096;20.082;2022-12-08T03:26:57;98370.60;;;1.40
67822;BMP180;54434;50.096;20.082;2022-12-08T03:29:35;98370.20;;;1.40
67822;BMP180;54434;50.096;20.082;2022-12-08T03:32:21;98371.20;;;1.30
67822;BMP180;54434;50.096;20.082;2022-12-08T03:35:02;98366.80;;;1.30
67822;BMP180;54434;50.096;20.082;2022-12-08T03:37:41;98367.20;;;1.30
67822;BMP180;54434;50.096;20.082;2022-12-08T03:40:20;98366.80;;;1.20
67822;BMP180;54434;50.096;20.082;2022-12-08T03:42:56;98370.80;;;1.20
67822;BMP180;54434;50.096;20.082;2022-12-08T03:45:32;98370.20;;;1.10
67822;BMP180;54434;50.096;20.082;2022-12-08T03:48:09;98365.40;;;1.10
67822;BMP180;54434;50.096;20.082;2022-12-08T03:50:45;98366.40;;;1.10
67822;BMP180;54434;50.096;20.082;2022-12-08T03:53:21;98362.00;;;1.00
67822;BMP180;54434;50.096;20.082;2022-12-08T03:55:57;98363.60;;;1.00
67822;BMP180;54434;50.096;20.082;2022-12-08T03:58:33;98363.40;;;1.00
67822;BMP180;54434;50.096;20.082;2022-12-08T04:01:11;98364.20;;;0.92
67822;BMP180;54434;50.096;20.082;2022-12-08T04:03:48;98366.20;;;0.90
67822;BMP180;54434;50.096;20.082;2022-12-08T04:06:26;98363.60;;;0.90
67822;BMP180;54434;50.096;20.082;2022-12-08T04:09:02;98362.60;;;0.90
67822;BMP180;54434;50.096;20.082;2022-12-08T04:11:39;98357.60;;;0.80
67822;BMP180;54434;50.096;20.082;2022-12-08T04:14:15;98359.60;;;0.80
67822;BMP180;54434;50.096;20.082;2022-12-08T04:16:52;98363.40;;;0.80
67822;BMP180;54434;50.096;20.082;2022-12-08T04:19:29;98358.00;;;0.80
67822;BMP180;54434;50.096;20.082;2022-12-08T04:22:06;98361.20;;;0.78
67822;BMP180;54434;50.096;20.082;2022-12-08T04:24:43;98359.40;;;0.74
67822;BMP180;54434;50.096;20.082;2022-12-08T04:27:19;98358.40;;;0.78
67822;BMP180;54434;50.096;20.082;2022-12-08T04:29:56;98356.40;;;0.80
67822;BMP180;54434;50.096;20.082;2022-12-08T04:32:34;98359.20;;;0.80
67822;BMP180;54434;50.096;20.082;2022-12-08T04:35:11;98360.40;;;0.80
67822;BMP180;54434;50.096;20.082;2022-12-08T04:37:51;98355.40;;;0.80
67822;BMP180;54434;50.096;20.082;2022-12-08T04:40:28;98358.40;;;0.80
67822;BMP180;54434;50.096;20.082;2022-12-08T04:43:06;98357.60;;;0.80
67822;BMP180;54434;50.096;20.082;2022-12-08T04:45:45;98353.20;;;0.86
67822;BMP180;54434;50.096;20.082;2022-12-08T04:48:23;98353.20;;;0.90
67822;BMP180;54434;50.096;20.082;2022-12-08T04:50:58;98351.60;;;0.90
67822;BMP180;54434;50.096;20.082;2022-12-08T04:53:35;98354.40;;;0.90
67822;BMP180;54434;50.096;20.082;2022-12-08T04:56:19;98357.80;;;0.90
67822;BMP180;54434;50.096;20.082;2022-12-08T04:58:56;98355.40;;;0.90
67822;BMP180;54434;50.096;20.082;2022-12-08T05:01:36;98353.20;;;0.90
67822;BMP180;54434;50.096;20.082;2022-12-08T05:04:14;98350.60;;;0.90
67822;BMP180;54434;50.096;20.082;2022-12-08T05:06:52;98347.60;;;0.90
67822;BMP180;54434;50.096;20.082;2022-12-08T05:09:31;98350.20;;;0.90
67822;BMP180;54434;50.096;20.082;2022-12-08T05:12:09;98350.60;;;0.94
67822;BMP180;54434;50.096;20.082;2022-12-08T05:14:48;98353.80;;;1.00
67822;BMP180;54434;50.096;20.082;2022-12-08T05:17:29;98352.60;;;1.00
67822;BMP180;54434;50.096;20.082;2022-12-08T05:20:12;98354.80;;;1.00
67822;BMP180;54434;50.096;20.082;2022-12-08T05:22:51;98353.60;;;1.00
67822;BMP180;54434;50.096;20.082;2022-12-08T05:25:31;98358.00;;;1.00
67822;BMP180;54434;50.096;20.082;2022-12-08T05:28:12;98355.00;;;1.00
67822;BMP180;54434;50.096;20.082;2022-12-08T05:31:09;98352.80;;;1.00
67822;BMP180;54434;50.096;20.082;2022-12-08T05:33:49;98354.80;;;1.00
67822;BMP180;54434;50.096;20.082;2022-12-08T05:36:28;98358.00;;;1.00
67822;BMP180;54434;50.096;20.082;2022-12-08T05:39:09;98360.60;;;1.00
67822;BMP180;54434;50.096;20.082;2022-12-08T05:41:49;98359.20;;;1.02
67822;BMP180;54434;50.096;20.082;2022-12-08T05:44:30;98357.00;;;1.04
67822;BMP180;54434;50.096;20.082;2022-12-08T05:47:09;98360.40;;;1.04
67822;BMP180;54434;50.096;20.082;2022-12-08T05:49:52;98358.80;;;1.08
67822;BMP180;54434;50.096;20.082;2022-12-08T05:52:32;98361.40;;;1.00
67822;BMP180;54434;50.096;20.082;2022-12-08T05:55:11;98366.00;;;1.00
67822;BMP180;54434;50.096;20.082;2022-12-08T05:57:46;98367.00;;;1.00
67822;BMP180;54434;50.096;20.082;2022-12-08T06:00:24;98367.80;;;1.00
67822;BMP180;54434;50.096;20.082;2022-12-08T06:03:00;98372.80;;;1.00
67822;BMP180;54434;50.096;20.082;2022-12-08T06:05:37;98373.00;;;1.00
67822;BMP180;54434;50.096;20.082;2022-12-08T06:08:15;98372.00;;;1.00
67822;BMP180;54434;50.096;20.082;2022-12-08T06:10:51;98372.40;;;1.00
67822;BMP180;54434;50.096;20.082;2022-12-08T06:13:27;98372.60;;;1.00
67822;BMP180;54434;50.096;20.082;2022-12-08T06:16:08;98375.40;;;1.00
67822;BMP180;54434;50.096;20.082;2022-12-08T06:18:43;98393.40;;;1.00
67822;BMP180;54434;50.096;20.082;2022-12-08T06:21:19;98394.80;;;0.94
67822;BMP180;54434;50.096;20.082;2022-12-08T06:23:57;98392.40;;;0.90
67822;BMP180;54434;50.096;20.082;2022-12-08T06:26:33;98397.00;;;0.90
67822;BMP180;54434;50.096;20.082;2022-12-08T06:29:09;98397.00;;;0.90
67822;BMP180;54434;50.096;20.082;2022-12-08T06:31:56;98396.20;;;0.90
67822;BMP180;54434;50.096;20.082;2022-12-08T06:34:40;98397.80;;;0.90
67822;BMP180;54434;50.096;20.082;2022-12-08T06:37:34;98399.00;;;0.90
67822;BMP180;54434;50.096;20.082;2022-12-08T06:40:13;98402.40;;;0.90
67822;BMP180;54434;50.096;20.082;2022-12-08T06:42:49;98398.20;;;0.90
67822;BMP180;54434;50.096;20.082;2022-12-08T06:45:25;98404.20;;;0.90
67822;BMP180;54434;50.096;20.082;2022-12-08T06:48:03;98411.40;;;0.96
67822;BMP180;54434;50.096;20.082;2022-12-08T06:50:38;98412.40;;;1.00
67822;BMP180;54434;50.096;20.082;2022-12-08T06:53:16;98413.60;;;1.00
67822;BMP180;54434;50.096;20.082;2022-12-08T06:55:55;98415.20;;;1.00
67822;BMP180;54434;50.096;20.082;2022-12-08T06:58:34;98415.40;;;1.06
67822;BMP180;54434;50.096;20.082;2022-12-08T07:01:14;98411.80;;;1.10
67822;BMP180;54434;50.096;20.082;2022-12-08T07:03:56;98416.00;;;1.10
67822;BMP180;54434;50.096;20.082;2022-12-08T07:06:36;98414.00;;;1.10
67822;BMP180;54434;50.096;20.082;2022-12-08T07:09:11;98414.80;;;1.14
67822;BMP180;54434;50.096;20.082;2022-12-08T07:11:47;98416.00;;;1.20
67822;BMP180;54434;50.096;20.082;2022-12-08T07:14:23;98423.60;;;1.20
67822;BMP180;54434;50.096;20.082;2022-12-08T07:17:02;98421.20;;;1.30
67822;BMP180;54434;50.096;20.082;2022-12-08T07:19:41;98418.20;;;1.30
67822;BMP180;54434;50.096;20.082;2022-12-08T07:22:18;98415.40;;;1.40
67822;BMP180;54434;50.096;20.082;2022-12-08T07:24:54;98417.80;;;1.50
67822;BMP180;54434;50.096;20.082;2022-12-08T07:27:30;98424.80;;;1.58
67822;BMP180;54434;50.096;20.082;2022-12-08T07:30:09;98426.60;;;1.60
67822;BMP180;54434;50.096;20.082;2022-12-08T07:32:45;98429.60;;;1.70
67822;BMP180;54434;50.096;20.082;2022-12-08T07:35:22;98427.60;;;1.76
67822;BMP180;54434;50.096;20.082;2022-12-08T07:38:01;98425.00;;;1.80
67822;BMP180;54434;50.096;20.082;2022-12-08T07:40:40;98422.20;;;1.88
67822;BMP180;54434;50.096;20.082;2022-12-08T07:43:18;98426.60;;;1.90
67822;BMP180;54434;50.096;20.082;2022-12-08T07:45:54;98422.80;;;2.00
67822;BMP180;54434;50.096;20.082;2022-12-08T07:48:31;98423.40;;;2.08
67822;BMP180;54434;50.096;20.082;2022-12-08T07:51:09;98425.40;;;2.10
67822;BMP180;54434;50.096;20.082;2022-12-08T07:53:49;98423.20;;;2.20
67822;BMP180;54434;50.096;20.082;2022-12-08T07:56:28;98429.60;;;2.30
67822;BMP180;54434;50.096;20.082;2022-12-08T07:59:04;98425.20;;;2.38
67822;BMP180;54434;50.096;20.082;2022-12-08T08:01:40;98427.40;;;2.40
67822;BMP180;54434;50.096;20.082;2022-12-08T08:04:19;98426.80;;;2.50
67822;BMP180;54434;50.096;20.082;2022-12-08T08:06:55;98426.20;;;2.50
67822;BMP180;54434;50.096;20.082;2022-12-08T08:09:31;98425.80;;;2.60
67822;BMP180;54434;50.096;20.082;2022-12-08T08:12:09;98430.80;;;2.70
67822;BMP180;54434;50.096;20.082;2022-12-08T08:15:07;98429.60;;;2.80
67822;BMP180;54434;50.096;20.082;2022-12-08T08:17:43;98429.60;;;2.90
67822;BMP180;54434;50.096;20.082;2022-12-08T08:20:21;98423.00;;;3.02
67822;BMP180;54434;50.096;20.082;2022-12-08T08:22:57;98427.80;;;3.20
67822;BMP180;54434;50.096;20.082;2022-12-08T08:25:33;98424.20;;;3.32
67822;BMP180;54434;50.096;20.082;2022-12-08T08:28:09;98426.80;;;3.50
67822;BMP180;54434;50.096;20.082;2022-12-08T08:30:46;98424.40;;;3.70
67822;BMP180;54434;50.096;20.082;2022-12-08T08:33:22;98424.40;;;3.88
67822;BMP180;54434;50.096;20.082;2022-12-08T08:35:58;98420.80;;;4.02
67822;BMP180;54434;50.096;20.082;2022-12-08T08:38:34;98424.40;;;4.24
67822;BMP180;54434;50.096;20.082;2022-12-08T08:41:13;98424.60;;;4.48
67822;BMP180;54434;50.096;20.082;2022-12-08T08:43:49;98429.00;;;4.62
67822;BMP180;54434;50.096;20.082;2022-12-08T08:46:25;98432.20;;;4.80
67822;BMP180;54434;50.096;20.082;2022-12-08T08:49:02;98429.20;;;4.90
67822;BMP180;54434;50.096;20.082;2022-12-08T08:51:41;98429.00;;;5.08
67822;BMP180;54434;50.096;20.082;2022-12-08T08:54:17;98429.40;;;5.10
67822;BMP180;54434;50.096;20.082;2022-12-08T08:56:53;98429.40;;;5.20
67822;BMP180;54434;50.096;20.082;2022-12-08T08:59:30;98429.00;;;5.30
67822;BMP180;54434;50.096;20.082;2022-12-08T09:02:08;98423.60;;;5.30
67822;BMP180;54434;50.096;20.082;2022-12-08T09:04:45;98424.80;;;5.40
67822;BMP180;54434;50.096;20.082;2022-12-08T09:07:21;98426.20;;;5.40
67822;BMP180;54434;50.096;20.082;2022-12-08T09:09:58;98421.80;;;5.34
67822;BMP180;54434;50.096;20.082;2022-12-08T09:12:36;98421.60;;;5.30
67822;BMP180;54434;50.096;20.082;2022-12-08T09:15:13;98420.20;;;5.30
67822;BMP180;54434;50.096;20.082;2022-12-08T09:17:49;98415.40;;;5.30
67822;BMP180;54434;50.096;20.082;2022-12-08T09:20:25;98416.80;;;5.30
67822;BMP180;54434;50.096;20.082;2022-12-08T09:23:00;98418.00;;;5.20
67822;BMP180;54434;50.096;20.082;2022-12-08T09:25:36;98412.40;;;5.20
67822;BMP180;54434;50.096;20.082;2022-12-08T09:28:13;98407.00;;;5.10
67822;BMP180;54434;50.096;20.082;2022-12-08T09:30:51;98407.40;;;5.10
67822;BMP180;54434;50.096;20.082;2022-12-08T09:33:27;98405.80;;;5.10
67822;BMP180;54434;50.096;20.082;2022-12-08T09:36:08;98403.00;;;5.10
67822;BMP180;54434;50.096;20.082;2022-12-08T09:38:44;98400.80;;;5.10
67822;BMP180;54434;50.096;20.082;2022-12-08T09:41:33;98397.60;;;5.10
67822;BMP180;54434;50.096;20.082;2022-12-08T09:44:53;98392.20;;;5.10
67822;BMP180;54434;50.096;20.082;2022-12-08T09:47:36;98387.40;;;5.10
67822;BMP180;54434;50.096;20.082;2022-12-08T09:50:29;98384.40;;;5.12
67822;BMP180;54434;50.096;20.082;2022-12-08T09:53:13;98383.20;;;5.20
67822;BMP180;54434;50.096;20.082;2022-12-08T09:55:56;98384.80;;;5.20
67822;BMP180;54434;50.096;20.082;2022-12-08T09:58:46;98387.40;;;5.30
67822;BMP180;54434;50.096;20.082;2022-12-08T10:01:28;98382.00;;;5.30
67822;BMP180;54434;50.096;20.082;2022-12-08T10:04:13;98376.80;;;5.30
67822;BMP180;54434;50.096;20.082;2022-12-08T10:07:04;98375.80;;;5.30
67822;BMP180;54434;50.096;20.082;2022-12-08T10:09:51;98370.40;;;5.30
67822;BMP180;54434;50.096;20.082;2022-12-08T10:12:40;98364.20;;;5.32
67822;BMP180;54434;50.096;20.082;2022-12-08T10:15:40;98363.20;;;5.40
67822;BMP180;54434;50.096;20.082;2022-12-08T10:18:26;98367.80;;;5.40
67822;BMP180;54434;50.096;20.082;2022-12-08T10:21:16;98371.00;;;5.40
67822;BMP180;54434;50.096;20.082;2022-12-08T10:24:00;98365.40;;;5.44
67822;BMP180;54434;50.096;20.082;2022-12-08T10:26:38;98361.00;;;5.50
67822;BMP180;54434;50.096;20.082;2022-12-08T10:29:15;98358.20;;;5.50
67822;BMP180;54434;50.096;20.082;2022-12-08T10:31:52;98359.80;;;5.50
67822;BMP180;54434;50.096;20.082;2022-12-08T10:34:29;98361.60;;;5.46
67822;BMP180;54434;50.096;20.082;2022-12-08T10:37:11;98362.40;;;5.40
67822;BMP180;54434;50.096;20.082;2022-12-08T10:39:59;98362.00;;;5.40
67822;BMP180;54434;50.096;20.082;2022-12-08T10:42:42;98358.40;;;5.30
67822;BMP180;54434;50.096;20.082;2022-12-08T10:45:32;98358.80;;;5.30
67822;BMP180;54434;50.096;20.082;2022-12-08T10:48:20;98360.40;;;5.30
67822;BMP180;54434;50.096;20.082;2022-12-08T10:50:59;98360.00;;;5.30
67822;BMP180;54434;50.096;20.082;2022-12-08T10:53:47;98356.40;;;5.30
67822;BMP180;54434;50.096;20.082;2022-12-08T10:56:28;98359.20;;;5.26
67822;BMP180;54434;50.096;20.082;2022-12-08T10:59:17;98353.80;;;5.20
67822;BMP180;54434;50.096;20.082;2022-12-08T11:01:55;98348.80;;;5.20
67822;BMP180;54434;50.096;20.082;2022-12-08T11:04:37;98345.00;;;5.20
67822;BMP180;54434;50.096;20.082;2022-12-08T11:07:20;98338.40;;;5.20
67822;BMP180;54434;50.096;20.082;2022-12-08T11:09:59;98337.60;;;5.20
67822;BMP180;54434;50.096;20.082;2022-12-08T11:12:35;98338.60;;;5.10
67822;BMP180;54434;50.096;20.082;2022-12-08T11:15:17;98339.60;;;5.10
67822;BMP180;54434;50.096;20.082;2022-12-08T11:18:08;98339.20;;;5.10
67822;BMP180;54434;50.096;20.082;2022-12-08T11:20:45;98338.00;;;5.10
67822;BMP180;54434;50.096;20.082;2022-12-08T11:23:28;98336.80;;;5.04
67822;BMP180;54434;50.096;20.082;2022-12-08T11:26:19;98335.20;;;5.00
67822;BMP180;54434;50.096;20.082;2022-12-08T11:28:58;98336.80;;;5.00
67822;BMP180;54434;50.096;20.082;2022-12-08T11:31:41;98340.20;;;4.90
67822;BMP180;54434;50.096;20.082;2022-12-08T11:34:32;98338.60;;;4.90
67822;BMP180;54434;50.096;20.082;2022-12-08T11:37:20;98335.00;;;4.90
67822;BMP180;54434;50.096;20.082;2022-12-08T11:40:13;98338.60;;;4.90
67822;BMP180;54434;50.096;20.082;2022-12-08T11:43:12;98335.40;;;4.84
67822;BMP180;54434;50.096;20.082;2022-12-08T11:45:55;98332.00;;;4.80
67822;BMP180;54434;50.096;20.082;2022-12-08T11:48:38;98333.60;;;4.80
67822;BMP180;54434;50.096;20.082;2022-12-08T11:51:20;98333.80;;;4.80
67822;BMP180;54434;50.096;20.082;2022-12-08T11:54:19;98336.80;;;4.80
67822;BMP180;54434;50.096;20.082;2022-12-08T11:57:00;98327.40;;;4.80
67822;BMP180;54434;50.096;20.082;2022-12-08T11:59:41;98327.80;;;4.80
67822;BMP180;54434;50.096;20.082;2022-12-08T12:02:24;98327.40;;;4.80
67822;BMP180;54434;50.096;20.082;2022-12-08T12:05:10;98329.40;;;4.80
67822;BMP180;54434;50.096;20.082;2022-12-08T12:08:38;98328.20;;;4.80
67822;BMP180;54434;50.096;20.082;2022-12-08T12:11:30;98331.60;;;4.80
67822;BMP180;54434;50.096;20.082;2022-12-08T12:14:54;98330.00;;;4.80
67822;BMP180;54434;50.096;20.082;2022-12-08T12:17:47;98331.60;;;4.80
67822;BMP180;54434;50.096;20.082;2022-12-08T12:20:32;98332.00;;;4.80
67822;BMP180;54434;50.096;20.082;2022-12-08T12:23:18;98334.20;;;4.80
67822;BMP180;54434;50.096;20.082;2022-12-08T12:26:01;98334.20;;;4.80
67822;BMP180;54434;50.096;20.082;2022-12-08T12:28:47;98333.60;;;4.80
67822;BMP180;54434;50.096;20.082;2022-12-08T12:31:29;98331.60;;;4.80
67822;BMP180;54434;50.096;20.082;2022-12-08T12:34:14;98331.40;;;4.80
67822;BMP180;54434;50.096;20.082;2022-12-08T12:36:56;98326.60;;;4.80
67822;BMP180;54434;50.096;20.082;2022-12-08T12:39:48;98324.40;;;4.80
67822;BMP180;54434;50.096;20.082;2022-12-08T12:42:43;98325.60;;;4.80
67822;BMP180;54434;50.096;20.082;2022-12-08T12:45:33;98325.40;;;4.78
67822;BMP180;54434;50.096;20.082;2022-12-08T12:48:25;98319.60;;;4.72
67822;BMP180;54434;50.096;20.082;2022-12-08T12:51:35;98313.20;;;4.70
67822;BMP180;54434;50.096;20.082;2022-12-08T12:54:28;98313.20;;;4.70
67822;BMP180;54434;50.096;20.082;2022-12-08T13:00:24;98311.60;;;4.70
67822;BMP180;54434;50.096;20.082;2022-12-08T13:03:00;98311.00;;;4.70
67822;BMP180;54434;50.096;20.082;2022-12-08T13:05:51;98311.60;;;4.70
67822;BMP180;54434;50.096;20.082;2022-12-08T13:08:28;98310.00;;;4.64
67822;BMP180;54434;50.096;20.082;2022-12-08T13:11:08;98312.40;;;4.60
67822;BMP180;54434;50.096;20.082;2022-12-08T13:13:58;98314.00;;;4.60
67822;BMP180;54434;50.096;20.082;2022-12-08T13:16:39;98307.00;;;4.60
67822;BMP180;54434;50.096;20.082;2022-12-08T13:19:17;98306.20;;;4.60
67822;BMP180;54434;50.096;20.082;2022-12-08T13:21:56;98297.00;;;4.60
67822;BMP180;54434;50.096;20.082;2022-12-08T13:24:36;98301.20;;;4.60
67822;BMP180;54434;50.096;20.082;2022-12-08T13:27:36;98301.00;;;4.60
67822;BMP180;54434;50.096;20.082;2022-12-08T13:30:49;98302.00;;;4.60
67822;BMP180;54434;50.096;20.082;2022-12-08T13:33:32;98303.40;;;4.54
67822;BMP180;54434;50.096;20.082;2022-12-08T13:36:23;98303.80;;;4.50
67822;BMP180;54434;50.096;20.082;2022-12-08T13:39:01;98302.40;;;4.50
67822;BMP180;54434;50.096;20.082;2022-12-08T13:41:46;98301.60;;;4.50
67822;BMP180;54434;50.096;20.082;2022-12-08T13:44:34;98303.40;;;4.50
67822;BMP180;54434;50.096;20.082;2022-12-08T13:47:41;98300.00;;;4.40
67822;BMP180;54434;50.096;20.082;2022-12-08T13:50:42;98292.80;;;4.40
67822;BMP180;54434;50.096;20.082;2022-12-08T13:53:45;98297.40;;;4.40
67822;BMP180;54434;50.096;20.082;2022-12-08T13:56:45;98286.20;;;4.30
67822;BMP180;54434;50.096;20.082;2022-12-08T13:59:46;98285.80;;;4.30
67822;BMP180;54434;50.096;20.082;2022-12-08T14:02:33;98284.60;;;4.20
67822;BMP180;54434;50.096;20.082;2022-12-08T14:05:19;98290.40;;;4.20
67822;BMP180;54434;50.096;20.082;2022-12-08T14:08:29;98292.60;;;4.20
67822;BMP180;54434;50.096;20.082;2022-12-08T14:11:35;98293.60;;;4.18
67822;BMP180;54434;50.096;20.082;2022-12-08T14:14:18;98298.20;;;4.10
67822;BMP180;54434;50.096;20.082;2022-12-08T14:17:18;98295.80;;;4.06
67822;BMP180;54434;50.096;20.082;2022-12-08T14:20:00;98299.00;;;4.00
67822;BMP180;54434;50.096;20.082;2022-12-08T14:22:39;98297.80;;;4.00
67822;BMP180;54434;50.096;20.082;2022-12-08T14:25:19;98296.40;;;3.96
67822;BMP180;54434;50.096;20.082;2022-12-08T14:28:02;98302.80;;;3.90
67822;BMP180;54434;50.096;20.082;2022-12-08T14:30:40;98298.60;;;3.90
67822;BMP180;54434;50.096;20.082;2022-12-08T14:33:18;98298.00;;;3.90
67822;BMP180;54434;50.096;20.082;2022-12-08T14:35:56;98298.20;;;3.90
67822;BMP180;54434;50.096;20.082;2022-12-08T14:38:32;98298.80;;;3.90
67822;BMP180;54434;50.096;20.082;2022-12-08T14:41:12;98302.20;;;3.80
67822;BMP180;54434;50.096;20.082;2022-12-08T14:43:58;98303.60;;;3.80
67822;BMP180;54434;50.096;20.082;2022-12-08T14:46:37;98304.80;;;3.80
67822;BMP180;54434;50.096;20.082;2022-12-08T14:49:36;98301.20;;;3.80
67822;BMP180;54434;50.096;20.082;2022-12-08T14:52:16;98294.60;;;3.80
67822;BMP180;54434;50.096;20.082;2022-12-08T14:54:53;98296.60;;;3.80
67822;BMP180;54434;50.096;20.082;2022-12-08T14:57:37;98299.60;;;3.74
67822;BMP180;54434;50.096;20.082;2022-12-08T15:00:24;98295.20;;;3.70
67822;BMP180;54434;50.096;20.082;2022-12-08T15:03:06;98293.80;;;3.70
67822;BMP180;54434;50.096;20.082;2022-12-08T15:05:42;98296.60;;;3.68
67822;BMP180;54434;50.096;20.082;2022-12-08T15:08:18;98297.40;;;3.68
67822;BMP180;54434;50.096;20.082;2022-12-08T15:11:33;98291.60;;;3.66
67822;BMP180;54434;50.096;20.082;2022-12-08T15:14:32;98291.20;;;3.60
67822;BMP180;54434;50.096;20.082;2022-12-08T15:17:42;98287.00;;;3.60
67822;BMP180;54434;50.096;20.082;2022-12-08T15:20:40;98289.00;;;3.60
67822;BMP180;54434;50.096;20.082;2022-12-08T15:23:28;98283.60;;;3.60
67822;BMP180;54434;50.096;20.082;2022-12-08T15:26:07;98282.20;;;3.58
67822;BMP180;54434;50.096;20.082;2022-12-08T15:28:43;98281.60;;;3.50
67822;BMP180;54434;50.096;20.082;2022-12-08T15:31:22;98281.00;;;3.50
67822;BMP180;54434;50.096;20.082;2022-12-08T15:33:59;98275.20;;;3.50
67822;BMP180;54434;50.096;20.082;2022-12-08T15:36:35;98277.20;;;3.50
67822;BMP180;54434;50.096;20.082;2022-12-08T15:39:30;98279.40;;;3.40
67822;BMP180;54434;50.096;20.082;2022-12-08T15:42:12;98275.40;;;3.40
67822;BMP180;54434;50.096;20.082;2022-12-08T15:44:48;98274.00;;;3.40
67822;BMP180;54434;50.096;20.082;2022-12-08T15:47:26;98274.40;;;3.40
67822;BMP180;54434;50.096;20.082;2022-12-08T15:50:02;98274.40;;;3.40